Time;durP1;ratioP1;P1;durP2;ratioP2;P2;SDS_P1;SDS_P2;PMS_P1;PMS_P2;Temp;Humidity;BMP_temperature;BMP_pressure;BME280_temperature;BME280_humidity;BME280_pressure;Samples;Min_cycle;Max_cycle;Signal;HPM_P1;HPM_P2
2023/01/08 00:01:19;;;;;;;;;;;;;;;-144.47;100.00;61586.06;5023770;28;19918;-76
2023/01/08 00:03:45;;;;;;;;;;;;;;;-144.47;100.00;61586.06;5026871;28;19917;-77
2023/01/08 00:06:12;;;;;;;;;;;;;;;-144.47;100.00;61586.06;5019382;28;19979;-77
2023/01/08 00:08:37;;;;;;;;;;;;;;;-144.47;100.00;61586.06;5029156;28;19959;-77
2023/01/08 00:11:02;;;;;;;;;;;;;;;-144.47;100.00;61586.06;5030212;28;19917;-77
2023/01/08 00:13:28;;;;;;;;;;;;;;;-144.47;100.00;61586.06;5029932;28;19925;-77
2023/01/08 00:15:54;;;;;;;;;;;;;;;-144.47;100.00;61586.06;5030715;28;19921;-77
2023/01/08 00:18:20;;;;;;;;;;;;;;;-144.47;100.00;61586.06;5028958;28;20008;-77
2023/01/08 00:20:45;;;;;;;;;;;;;;;-144.47;100.00;61586.06;5032514;28;20000;-77
2023/01/08 00:23:15;;;;;;;;;;;;;;;-144.47;100.00;61586.06;5031672;28;19973;-76
2023/01/08 00:25:40;;;;;;;;;;;;;;;-144.47;100.00;61586.06;5023582;28;20265;-76
2023/01/08 00:28:06;;;;;;;;;;;;;;;-144.47;100.00;61586.06;5030494;28;19917;-76
2023/01/08 00:30:31;;;;;;;;;;;;;;;-144.47;100.00;61586.06;5028793;28;19967;-76
2023/01/08 00:32:57;;;;;;;;;;;;;;;-144.47;100.00;61586.06;5028105;28;19917;-76
2023/01/08 00:35:22;;;;;;;;;;;;;;;-144.47;100.00;61586.06;5030029;28;19917;-76
2023/01/08 00:37:48;;;;;;;;;;;;;;;-144.47;100.00;61586.06;5031353;28;19921;-76
2023/01/08 00:40:13;;;;;;;;;;;;;;;-144.47;100.00;61586.06;5027733;28;20004;-77
2023/01/08 00:42:39;;;;;;;;;;;;;;;-144.47;100.00;61586.06;5027009;28;20083;-77
2023/01/08 00:45:05;;;;;;;;;;;;;;;-144.47;100.00;61586.06;5026942;28;19913;-75
2023/01/08 00:47:30;;;;;;;;;;;;;;;-144.47;100.00;61586.06;5030885;28;20002;-76
2023/01/08 00:49:55;;;;;;;;;;;;;;;-144.47;100.00;61586.06;5030055;28;19916;-77
2023/01/08 00:52:21;;;;;;;;;;;;;;;-144.47;100.00;61586.06;5029277;28;19917;-77
2023/01/08 00:54:46;;;;;;;;;;;;;;;-144.47;100.00;61586.06;5031291;28;19959;-77
2023/01/08 00:57:12;;;;;;;;;;;;;;;-144.47;100.00;61586.06;5029549;28;19924;-77
2023/01/08 00:59:37;;;;;;;;;;;;;;;-144.47;100.00;61586.06;5028820;28;19992;-76
2023/01/08 01:02:04;;;;;;;;;;;;;;;-144.47;100.00;61586.06;5031132;28;19917;-76
2023/01/08 01:04:29;;;;;;;;;;;;;;;-144.47;100.00;61586.06;5031658;28;19917;-75
2023/01/08 01:06:55;;;;;;;;;;;;;;;-144.47;100.00;61586.06;5033216;28;19924;-77
2023/01/08 01:09:20;;;;;;;;;;;;;;;-144.47;100.00;61586.06;5031575;28;19917;-77
2023/01/08 01:11:46;;;;;;;;;;;;;;;-144.47;100.00;61586.06;5032141;28;19917;-76
2023/01/08 01:14:11;;;;;;;;;;;;;;;-144.47;100.00;61586.06;5030255;28;19921;-77
2023/01/08 01:16:38;;;;;;;;;;;;;;;-144.47;100.00;61586.06;5029594;28;19997;-75
2023/01/08 01:19:04;;;;;;;;;;;;;;;-144.47;100.00;61586.06;5032663;28;19971;-76
2023/01/08 01:21:30;;;;;;;;;;;;;;;-144.47;100.00;61586.06;5030680;28;19999;-75
2023/01/08 01:23:58;;;;;;;;;;;;;;;-144.47;100.00;61586.06;5030923;28;19917;-75
2023/01/08 01:26:24;;;;;;;;;;;;;;;-144.47;100.00;61586.06;5031524;28;19921;-77
2023/01/08 01:28:50;;;;;;;;;;;;;;;-144.47;100.00;61586.06;5028507;28;19921;-77
2023/01/08 01:31:17;;;;;;;;;;;;;;;-144.47;100.00;61586.06;5031697;28;19968;-76
2023/01/08 01:33:42;;;;;;;;;;;;;;;-144.47;100.00;61586.06;5027730;28;20494;-76
2023/01/08 01:36:09;;;;;;;;;;;;;;;-144.47;100.00;61586.06;5028085;28;19918;-76
2023/01/08 01:38:34;;;;;;;;;;;;;;;-144.47;100.00;61586.06;5028551;28;19917;-74
2023/01/08 01:41:00;;;;;;;;;;;;;;;-144.47;100.00;61586.06;5026898;28;19917;-75
2023/01/08 01:43:32;;;;;;;;;;;;;;;-144.47;100.00;61586.06;5020126;28;20288;-77
2023/01/08 01:45:58;;;;;;;;;;;;;;;-144.47;100.00;61586.06;5023522;28;19917;-76
2023/01/08 01:48:23;;;;;;;;;;;;;;;-144.47;100.00;61586.06;5022019;28;19924;-76
2023/01/08 01:50:50;;;;;;;;;;;;;;;-144.47;100.00;61586.06;5023221;28;19916;-76
2023/01/08 01:53:15;;;;;;;;;;;;;;;-144.47;100.00;61586.06;5020711;28;19921;-76
2023/01/08 01:55:42;;;;;;;;;;;;;;;-144.47;100.00;61586.06;5023475;28;19974;-76
2023/01/08 01:58:10;;;;;;;;;;;;;;;-144.47;100.00;61586.06;5018447;28;19921;-74
2023/01/08 02:00:36;;;;;;;;;;;;;;;-144.47;100.00;61586.06;5020937;28;19979;-77
2023/01/08 02:03:02;;;;;;;;;;;;;;;-144.47;100.00;61586.06;5020472;28;19956;-76
2023/01/08 02:05:37;;;;;;;;;;;;;;;-144.47;100.00;61586.06;5020999;28;20399;-77
2023/01/08 02:08:09;;;;;;;;;;;;;;;-144.47;100.00;61586.06;5023088;28;19939;-77
2023/01/08 02:10:35;;;;;;;;;;;;;;;-144.47;100.00;61586.06;5022340;28;19917;-77
2023/01/08 02:13:04;;;;;;;;;;;;;;;-144.47;100.00;61586.06;5024620;28;20119;-77
2023/01/08 02:15:50;;;;;;;;;;;;;;;-144.47;100.00;61586.06;5023212;28;19956;-77
2023/01/08 02:18:18;;;;;;;;;;;;;;;-144.47;100.00;61586.06;5025945;28;19924;-78
2023/01/08 02:20:46;;;;;;;;;;;;;;;-144.47;100.00;61586.06;5021910;28;19964;-76
2023/01/08 02:23:21;;;;;;;;;;;;;;;-144.47;100.00;61586.06;5025642;28;19979;-77
2023/01/08 02:25:52;;;;;;;;;;;;;;;-144.47;100.00;61586.06;5017098;28;19917;-77
2023/01/08 02:28:18;;;;;;;;;;;;;;;-144.47;100.00;61586.06;5024361;28;19917;-75
2023/01/08 02:30:44;;;;;;;;;;;;;;;-144.47;100.00;61586.06;5020247;28;19917;-76
2023/01/08 02:33:10;;;;;;;;;;;;;;;-144.47;100.00;61586.06;5023408;28;19924;-76
2023/01/08 02:35:37;;;;;;;;;;;;;;;-144.47;100.00;61586.06;5019182;28;19925;-76
2023/01/08 02:38:03;;;;;;;;;;;;;;;-144.47;100.00;61586.06;5022434;28;20072;-76
2023/01/08 02:40:33;;;;;;;;;;;;;;;-144.47;100.00;61586.06;5021773;28;19916;-76
2023/01/08 02:43:05;;;;;;;;;;;;;;;-144.47;100.00;61586.06;5023092;28;19989;-78
2023/01/08 02:45:43;;;;;;;;;;;;;;;-144.47;100.00;61586.06;5020056;28;19979;-76
2023/01/08 02:48:14;;;;;;;;;;;;;;;-144.47;100.00;61586.06;5021323;28;19944;-76
2023/01/08 02:50:43;;;;;;;;;;;;;;;-144.47;100.00;61586.06;5022279;28;19960;-76
2023/01/08 02:53:20;;;;;;;;;;;;;;;-144.47;100.00;61586.06;5018710;28;20369;-76
2023/01/08 02:55:50;;;;;;;;;;;;;;;-144.47;100.00;61586.06;5021603;28;19925;-75
2023/01/08 02:58:15;;;;;;;;;;;;;;;-144.47;100.00;61586.06;5023059;28;19917;-76
2023/01/08 03:00:42;;;;;;;;;;;;;;;-144.47;100.00;61586.06;5015719;28;19927;-76
2023/01/08 03:03:17;;;;;;;;;;;;;;;-144.47;100.00;61586.06;5025342;28;19917;-74
2023/01/08 03:05:44;;;;;;;;;;;;;;;-144.47;100.00;61586.06;5016400;28;19917;-75
2023/01/08 03:08:10;;;;;;;;;;;;;;;-144.47;100.00;61586.06;5024044;28;19917;-76
2023/01/08 03:10:37;;;;;;;;;;;;;;;-144.47;100.00;61586.06;5020304;28;19971;-76
2023/01/08 03:13:14;;;;;;;;;;;;;;;-144.47;100.00;61586.06;5021757;28;19924;-76
2023/01/08 03:15:48;;;;;;;;;;;;;;;-144.47;100.00;61586.06;5019532;28;19928;-76
2023/01/08 03:18:18;;;;;;;;;;;;;;;-144.47;100.00;61586.06;5016272;28;19917;-76
2023/01/08 03:20:44;;;;;;;;;;;;;;;-144.47;100.00;61586.06;5023362;28;19928;-77
2023/01/08 03:23:11;;;;;;;;;;;;;;;-144.47;100.00;61586.06;5020426;28;19928;-76
2023/01/08 03:25:38;;;;;;;;;;;;;;;-144.47;100.00;61586.06;5022234;28;19925;-76
2023/01/08 03:28:06;;;;;;;;;;;;;;;-144.47;100.00;61586.06;5020458;28;20030;-77
2023/01/08 03:30:32;;;;;;;;;;;;;;;-144.47;100.00;61586.06;5021188;28;19960;-76
2023/01/08 03:32:58;;;;;;;;;;;;;;;-144.47;100.00;61586.06;5021204;28;19921;-77
2023/01/08 03:35:25;;;;;;;;;;;;;;;-144.47;100.00;61586.06;5021808;28;19917;-76
2023/01/08 03:37:55;;;;;;;;;;;;;;;-144.47;100.00;61586.06;5020013;28;19917;-76
2023/01/08 03:40:23;;;;;;;;;;;;;;;-144.47;100.00;61586.06;5022083;28;19923;-76
2023/01/08 03:42:49;;;;;;;;;;;;;;;-144.47;100.00;61586.06;5019362;28;19917;-76
2023/01/08 03:45:15;;;;;;;;;;;;;;;-144.47;100.00;61586.06;5023661;28;19939;-76
2023/01/08 03:47:41;;;;;;;;;;;;;;;-144.47;100.00;61586.06;5022515;28;19928;-77
2023/01/08 03:50:09;;;;;;;;;;;;;;;-144.47;100.00;61586.06;5024941;28;19917;-76
2023/01/08 03:52:34;;;;;;;;;;;;;;;-144.47;100.00;61586.06;5023530;28;19924;-77
2023/01/08 03:55:00;;;;;;;;;;;;;;;-144.47;100.00;61586.06;5023919;28;19917;-77
2023/01/08 03:57:25;;;;;;;;;;;;;;;-144.47;100.00;61586.06;5023391;28;19987;-76
2023/01/08 03:59:50;;;;;;;;;;;;;;;-144.47;100.00;61586.06;5026029;28;19991;-76
2023/01/08 04:02:16;;;;;;;;;;;;;;;-144.47;100.00;61586.06;5022809;28;19918;-77
2023/01/08 04:04:41;;;;;;;;;;;;;;;-144.47;100.00;61586.06;5024723;28;19925;-76
2023/01/08 04:07:09;;;;;;;;;;;;;;;-144.47;100.00;61586.06;5024883;28;19920;-77
2023/01/08 04:09:34;;;;;;;;;;;;;;;-144.47;100.00;61586.06;5022917;28;20037;-77
2023/01/08 04:11:59;;;;;;;;;;;;;;;-144.47;100.00;61586.06;5024352;28;19918;-77
2023/01/08 04:14:25;;;;;;;;;;;;;;;-144.47;100.00;61586.06;5023865;28;19983;-77
2023/01/08 04:16:52;;;;;;;;;;;;;;;-144.47;100.00;61586.06;5022754;28;20451;-77
2023/01/08 04:19:17;;;;;;;;;;;;;;;-144.47;100.00;61586.06;5025210;28;19967;-77
2023/01/08 04:21:42;;;;;;;;;;;;;;;-144.47;100.00;61586.06;5020390;28;19918;-77
2023/01/08 04:24:08;;;;;;;;;;;;;;;-144.47;100.00;61586.06;5021329;28;20293;-77
2023/01/08 04:26:33;;;;;;;;;;;;;;;-144.47;100.00;61586.06;5025586;28;20007;-76
2023/01/08 04:29:01;;;;;;;;;;;;;;;-144.47;100.00;61586.06;5023733;28;20014;-77
2023/01/08 04:31:26;;;;;;;;;;;;;;;-144.47;100.00;61586.06;5022925;28;19918;-77
2023/01/08 04:33:52;;;;;;;;;;;;;;;-144.47;100.00;61586.06;5024214;28;20258;-77
2023/01/08 04:36:17;;;;;;;;;;;;;;;-144.47;100.00;61586.06;5024177;28;20285;-77
2023/01/08 04:38:42;;;;;;;;;;;;;;;-144.47;100.00;61586.06;5021558;28;19921;-76
2023/01/08 04:41:08;;;;;;;;;;;;;;;-144.47;100.00;61586.06;5024774;28;20297;-77
2023/01/08 04:43:33;;;;;;;;;;;;;;;-144.47;100.00;61586.06;5022323;28;20003;-78
2023/01/08 04:46:00;;;;;;;;;;;;;;;-144.47;100.00;61586.06;5023246;28;19953;-78
2023/01/08 04:48:26;;;;;;;;;;;;;;;-144.47;100.00;61586.06;5023325;28;20431;-77
2023/01/08 04:50:51;;;;;;;;;;;;;;;-144.47;100.00;61586.06;5021853;28;19921;-76
2023/01/08 04:53:17;;;;;;;;;;;;;;;-144.47;100.00;61586.06;5024736;28;19924;-76
2023/01/08 04:55:42;;;;;;;;;;;;;;;-144.47;100.00;61586.06;5020880;28;20029;-76
2023/01/08 04:58:08;;;;;;;;;;;;;;;-144.47;100.00;61586.06;5023444;28;19917;-77
2023/01/08 05:00:33;;;;;;;;;;;;;;;-144.47;100.00;61586.06;5022078;28;19921;-77
2023/01/08 05:02:59;;;;;;;;;;;;;;;-144.47;100.00;61586.06;5023002;28;19987;-77
2023/01/08 05:05:24;;;;;;;;;;;;;;;-144.47;100.00;61586.06;5023035;28;19984;-76
2023/01/08 05:07:49;;;;;;;;;;;;;;;-144.47;100.00;61586.06;5022387;28;19918;-76
2023/01/08 05:10:15;;;;;;;;;;;;;;;-144.47;100.00;61586.06;5025609;28;19917;-76
2023/01/08 05:12:40;;;;;;;;;;;;;;;-144.47;100.00;61586.06;5020739;28;19939;-75
2023/01/08 05:15:06;;;;;;;;;;;;;;;-144.47;100.00;61586.06;5021402;28;19972;-75
2023/01/08 05:17:31;;;;;;;;;;;;;;;-144.47;100.00;61586.06;5022729;28;19921;-76
2023/01/08 05:19:57;;;;;;;;;;;;;;;-144.47;100.00;61586.06;5023031;28;19917;-76
2023/01/08 05:22:22;;;;;;;;;;;;;;;-144.47;100.00;61586.06;5020775;28;19916;-78
2023/01/08 05:24:48;;;;;;;;;;;;;;;-144.47;100.00;61586.06;5021140;28;19979;-77
2023/01/08 05:27:13;;;;;;;;;;;;;;;-144.47;100.00;61586.06;5021431;28;19917;-78
2023/01/08 05:29:38;;;;;;;;;;;;;;;-144.47;100.00;61586.06;5020048;28;19918;-76
2023/01/08 05:32:05;;;;;;;;;;;;;;;-144.47;100.00;61586.06;5023470;28;19917;-78
2023/01/08 05:34:31;;;;;;;;;;;;;;;-144.47;100.00;61586.06;5022022;28;20444;-79
2023/01/08 05:36:56;;;;;;;;;;;;;;;-144.47;100.00;61586.06;5022035;28;19966;-78
2023/01/08 05:39:22;;;;;;;;;;;;;;;-144.47;100.00;61586.06;5022109;28;19920;-77
2023/01/08 05:41:47;;;;;;;;;;;;;;;-144.47;100.00;61586.06;5020409;28;19964;-78
2023/01/08 05:44:12;;;;;;;;;;;;;;;-144.47;100.00;61586.06;5024141;28;19913;-77
2023/01/08 05:46:38;;;;;;;;;;;;;;;-144.47;100.00;61586.06;5023907;28;19972;-76
2023/01/08 05:49:03;;;;;;;;;;;;;;;-144.47;100.00;61586.06;5021081;28;19924;-78
2023/01/08 05:51:29;;;;;;;;;;;;;;;-144.47;100.00;61586.06;5021064;28;19919;-78
2023/01/08 05:53:54;;;;;;;;;;;;;;;-144.47;100.00;61586.06;5022311;28;20234;-77
2023/01/08 05:56:19;;;;;;;;;;;;;;;-144.47;100.00;61586.06;5020772;28;19959;-77
2023/01/08 05:58:45;;;;;;;;;;;;;;;-144.47;100.00;61586.06;5023659;28;19917;-77
2023/01/08 06:01:12;;;;;;;;;;;;;;;-144.47;100.00;61586.06;5019050;28;20080;-77
2023/01/08 06:03:38;;;;;;;;;;;;;;;-144.47;100.00;61586.06;5019463;28;20400;-78
2023/01/08 06:06:04;;;;;;;;;;;;;;;-144.47;100.00;61586.06;5022186;28;19948;-77
2023/01/08 06:08:30;;;;;;;;;;;;;;;-144.47;100.00;61586.06;5022413;28;20435;-77
2023/01/08 06:10:59;;;;;;;;;;;;;;;-144.47;100.00;61586.06;5020467;28;19914;-78
2023/01/08 06:13:25;;;;;;;;;;;;;;;-144.47;100.00;61586.06;5021245;28;19917;-76
2023/01/08 06:15:50;;;;;;;;;;;;;;;-144.47;100.00;61586.06;5024563;28;19966;-78
2023/01/08 06:18:16;;;;;;;;;;;;;;;-144.47;100.00;61586.06;5020592;28;19944;-77
2023/01/08 06:20:41;;;;;;;;;;;;;;;-144.47;100.00;61586.06;5015732;28;19928;-78
2023/01/08 06:23:08;;;;;;;;;;;;;;;-144.47;100.00;61586.06;5020065;28;19949;-78
2023/01/08 06:25:33;;;;;;;;;;;;;;;-144.47;100.00;61586.06;5023053;28;19917;-77
2023/01/08 06:27:59;;;;;;;;;;;;;;;-144.47;100.00;61586.06;5021932;28;19917;-77
2023/01/08 06:30:24;;;;;;;;;;;;;;;-144.47;100.00;61586.06;5023448;28;19970;-77
2023/01/08 06:32:54;;;;;;;;;;;;;;;-144.47;100.00;61586.06;5023167;28;19917;-75
2023/01/08 06:35:19;;;;;;;;;;;;;;;-144.47;100.00;61586.06;5022696;28;20012;-76
2023/01/08 06:37:45;;;;;;;;;;;;;;;-144.47;100.00;61586.06;5019754;28;20454;-78
2023/01/08 06:40:10;;;;;;;;;;;;;;;-144.47;100.00;61586.06;5020341;28;19925;-78
2023/01/08 06:42:36;;;;;;;;;;;;;;;-144.47;100.00;61586.06;5019910;28;20016;-76
2023/01/08 06:45:01;;;;;;;;;;;;;;;-144.47;100.00;61586.06;5021919;28;19921;-77
2023/01/08 06:47:27;;;;;;;;;;;;;;;-144.47;100.00;61586.06;5017731;28;19916;-76
2023/01/08 06:49:52;;;;;;;;;;;;;;;-144.47;100.00;61586.06;5019744;28;19924;-77
2023/01/08 06:52:18;;;;;;;;;;;;;;;-144.47;100.00;61586.06;5014287;28;19917;-77
2023/01/08 06:54:43;;;;;;;;;;;;;;;-144.47;100.00;61586.06;5019663;28;20020;-77
2023/01/08 06:57:08;;;;;;;;;;;;;;;-144.47;100.00;61586.06;5021185;28;19932;-76
2023/01/08 06:59:34;;;;;;;;;;;;;;;-144.47;100.00;61586.06;5020147;28;19932;-77
2023/01/08 07:01:59;;;;;;;;;;;;;;;-144.47;100.00;61586.06;5023586;28;19923;-78
2023/01/08 07:04:25;;;;;;;;;;;;;;;-144.47;100.00;61586.06;5020555;28;19917;-77
2023/01/08 07:06:50;;;;;;;;;;;;;;;-144.47;100.00;61586.06;5021160;28;19921;-75
2023/01/08 07:09:15;;;;;;;;;;;;;;;-144.47;100.00;61586.06;5022314;28;19951;-76
2023/01/08 07:11:41;;;;;;;;;;;;;;;-144.47;100.00;61586.06;5017460;28;20020;-77
2023/01/08 07:14:07;;;;;;;;;;;;;;;-144.47;100.00;61586.06;5021436;28;19925;-76
2023/01/08 07:16:32;;;;;;;;;;;;;;;-144.47;100.00;61586.06;5020020;28;19921;-76
2023/01/08 07:18:58;;;;;;;;;;;;;;;-144.47;100.00;61586.06;5020503;28;20000;-76
2023/01/08 07:21:23;;;;;;;;;;;;;;;-144.47;100.00;61586.06;5023818;28;19912;-76
2023/01/08 07:23:49;;;;;;;;;;;;;;;-144.47;100.00;61586.06;5023769;28;19917;-76
2023/01/08 07:26:15;;;;;;;;;;;;;;;-144.47;100.00;61586.06;5028414;28;19924;-76
2023/01/08 07:28:40;;;;;;;;;;;;;;;-144.47;100.00;61586.06;5025026;28;19924;-75
2023/01/08 07:31:06;;;;;;;;;;;;;;;-144.47;100.00;61586.06;5025831;28;19924;-76
2023/01/08 07:33:32;;;;;;;;;;;;;;;-144.47;100.00;61586.06;5024004;28;19917;-76
2023/01/08 07:35:57;;;;;;;;;;;;;;;-144.47;100.00;61586.06;5023671;28;19918;-76
2023/01/08 07:38:23;;;;;;;;;;;;;;;-144.47;100.00;61586.06;5025057;28;19917;-77
2023/01/08 07:40:48;;;;;;;;;;;;;;;-144.47;100.00;61586.06;5023196;28;19928;-76
2023/01/08 07:43:14;;;;;;;;;;;;;;;-144.47;100.00;61586.06;5019368;28;20004;-77
2023/01/08 07:45:39;;;;;;;;;;;;;;;-144.47;100.00;61586.06;5021316;28;19917;-74
2023/01/08 07:48:05;;;;;;;;;;;;;;;-144.47;100.00;61586.06;5020178;28;19917;-73
2023/01/08 07:50:30;;;;;;;;;;;;;;;-144.47;100.00;61586.06;5020276;28;19921;-74
2023/01/08 07:52:59;;;;;;;;;;;;;;;-144.47;100.00;61586.06;5020082;28;19924;-74
2023/01/08 07:55:25;;;;;;;;;;;;;;;-144.47;100.00;61586.06;5020027;28;19917;-76
2023/01/08 07:57:50;;;;;;;;;;;;;;;-144.47;100.00;61586.06;5019889;28;19970;-75
2023/01/08 08:00:16;;;;;;;;;;;;;;;-144.47;100.00;61586.06;5019311;28;19921;-75
2023/01/08 08:02:41;;;;;;;;;;;;;;;-144.47;100.00;61586.06;5021207;28;19921;-75
2023/01/08 08:05:07;;;;;;;;;;;;;;;-144.47;100.00;61586.06;5021148;28;19925;-76
2023/01/08 08:07:33;;;;;;;;;;;;;;;-144.47;100.00;61586.06;5017728;28;19917;-76
2023/01/08 08:09:58;;;;;;;;;;;;;;;-144.47;100.00;61586.06;5007444;28;19953;-74
2023/01/08 08:12:24;;;;;;;;;;;;;;;-144.47;100.00;61586.06;5013423;28;19995;-75
2023/01/08 08:14:49;;;;;;;;;;;;;;;-144.47;100.00;61586.06;5024306;28;19917;-74
2023/01/08 08:17:15;;;;;;;;;;;;;;;-144.47;100.00;61586.06;5015871;28;19963;-74
2023/01/08 08:19:42;;;;;;;;;;;;;;;-144.47;100.00;61586.06;5001666;28;19918;-73
2023/01/08 08:22:08;;;;;;;;;;;;;;;-144.47;100.00;61586.06;5017463;28;19957;-73
2023/01/08 08:24:33;;;;;;;;;;;;;;;-144.47;100.00;61586.06;5009423;28;19990;-73
2023/01/08 08:26:59;;;;;;;;;;;;;;;-144.47;100.00;61586.06;5014758;28;19925;-75
2023/01/08 08:29:24;;;;;;;;;;;;;;;-144.47;100.00;61586.06;5020266;28;20024;-74
2023/01/08 08:31:49;;;;;;;;;;;;;;;-144.47;100.00;61586.06;5017636;28;19921;-77
2023/01/08 08:34:15;;;;;;;;;;;;;;;-144.47;100.00;61586.06;5013321;28;19921;-74
2023/01/08 08:36:40;;;;;;;;;;;;;;;-144.47;100.00;61586.06;5002152;28;19920;-76
2023/01/08 08:39:06;;;;;;;;;;;;;;;-144.47;100.00;61586.06;5016983;28;19971;-76
2023/01/08 08:41:31;;;;;;;;;;;;;;;-144.47;100.00;61586.06;5025407;28;19968;-75
2023/01/08 08:43:56;;;;;;;;;;;;;;;-144.47;100.00;61586.06;5031021;28;19914;-76
2023/01/08 08:46:24;;;;;;;;;;;;;;;-144.47;100.00;61586.06;5028327;28;19987;-73
2023/01/08 08:48:49;;;;;;;;;;;;;;;-144.47;100.00;61586.06;5027740;28;19925;-73
2023/01/08 08:51:14;;;;;;;;;;;;;;;-144.47;100.00;61586.06;5022378;28;19959;-74
2023/01/08 08:53:40;;;;;;;;;;;;;;;-144.47;100.00;61586.06;5025743;28;19921;-75
2023/01/08 08:56:06;;;;;;;;;;;;;;;-144.47;100.00;61586.06;5030614;28;19917;-75
2023/01/08 08:58:31;;;;;;;;;;;;;;;-144.47;100.00;61586.06;5029942;28;19920;-75
2023/01/08 09:01:00;;;;;;;;;;;;;;;-144.47;100.00;61586.06;5030350;28;19921;-80
2023/01/08 09:03:25;;;;;;;;;;;;;;;-144.47;100.00;61586.06;5026353;28;20137;-74
2023/01/08 09:05:51;;;;;;;;;;;;;;;-144.47;100.00;61586.06;5028384;28;19964;-74
2023/01/08 09:08:16;;;;;;;;;;;;;;;-144.47;100.00;61586.06;5028035;28;19916;-75
2023/01/08 09:10:42;;;;;;;;;;;;;;;-144.47;100.00;61586.06;5028249;28;19917;-74
2023/01/08 09:13:08;;;;;;;;;;;;;;;-144.47;100.00;61586.06;5030730;28;19920;-75
2023/01/08 09:15:34;;;;;;;;;;;;;;;-144.47;100.00;61586.06;5028099;28;19917;-74
2023/01/08 09:18:00;;;;;;;;;;;;;;;-144.47;100.00;61586.06;5029266;28;19924;-75
2023/01/08 09:20:25;;;;;;;;;;;;;;;-144.47;100.00;61586.06;5028582;28;19918;-74
2023/01/08 09:22:51;;;;;;;;;;;;;;;-144.47;100.00;61586.06;5029890;28;19975;-74
2023/01/08 09:25:17;;;;;;;;;;;;;;;-144.47;100.00;61586.06;5027239;28;19923;-74
2023/01/08 09:27:42;;;;;;;;;;;;;;;-144.47;100.00;61586.06;5020922;28;19995;-75
2023/01/08 09:30:08;;;;;;;;;;;;;;;-144.47;100.00;61586.06;5029665;28;19967;-74
2023/01/08 09:32:33;;;;;;;;;;;;;;;-144.47;100.00;61586.06;5026930;28;19955;-76
2023/01/08 09:34:59;;;;;;;;;;;;;;;-144.47;100.00;61586.06;5028487;28;19924;-76
2023/01/08 09:37:24;;;;;;;;;;;;;;;-144.47;100.00;61586.06;5030421;28;19917;-75
2023/01/08 09:39:50;;;;;;;;;;;;;;;-144.47;100.00;61586.06;5029323;28;19917;-75
2023/01/08 09:42:19;;;;;;;;;;;;;;;-144.47;100.00;61586.06;5031291;28;20047;-74
2023/01/08 09:44:46;;;;;;;;;;;;;;;-144.47;100.00;61586.06;5023435;28;19952;-74
2023/01/08 09:47:25;;;;;;;;;;;;;;;-144.47;100.00;61586.06;5031709;28;19916;-74
2023/01/08 09:49:52;;;;;;;;;;;;;;;-144.47;100.00;61586.06;5021408;28;19924;-73
2023/01/08 09:52:18;;;;;;;;;;;;;;;-144.47;100.00;61586.06;5024573;28;20293;-72
2023/01/08 09:54:44;;;;;;;;;;;;;;;-144.47;100.00;61586.06;5025077;28;19928;-73
2023/01/08 09:57:14;;;;;;;;;;;;;;;-144.47;100.00;61586.06;5026623;28;19941;-73
2023/01/08 09:59:46;;;;;;;;;;;;;;;-144.47;100.00;61586.06;5021985;28;19913;-74
2023/01/08 10:02:14;;;;;;;;;;;;;;;-144.47;100.00;61586.06;5029065;28;20285;-74
2023/01/08 10:04:40;;;;;;;;;;;;;;;-144.47;100.00;61586.06;5020425;28;19913;-73
2023/01/08 10:07:20;;;;;;;;;;;;;;;-144.47;100.00;61586.06;5023021;28;19972;-74
2023/01/08 10:09:49;;;;;;;;;;;;;;;-144.47;100.00;61586.06;5018045;28;19917;-75
2023/01/08 10:12:17;;;;;;;;;;;;;;;-144.47;100.00;61586.06;5016389;28;19913;-75
2023/01/08 10:14:48;;;;;;;;;;;;;;;-144.47;100.00;61586.06;5023471;28;20057;-73
2023/01/08 10:17:32;;;;;;;;;;;;;;;-144.47;100.00;61586.06;5017629;28;20357;-75
2023/01/08 10:19:58;;;;;;;;;;;;;;;-144.47;100.00;61586.06;5019627;28;19917;-74
2023/01/08 10:22:24;;;;;;;;;;;;;;;-144.47;100.00;61586.06;5021542;28;19923;-76
2023/01/08 10:24:50;;;;;;;;;;;;;;;-144.47;100.00;61586.06;5020930;28;20288;-76
2023/01/08 10:27:21;;;;;;;;;;;;;;;-144.47;100.00;61586.06;5020583;28;20016;-75
2023/01/08 10:29:48;;;;;;;;;;;;;;;-144.47;100.00;61586.06;5017189;28;19925;-75
2023/01/08 10:32:14;;;;;;;;;;;;;;;-144.47;100.00;61586.06;5023240;28;19975;-76
2023/01/08 10:34:50;;;;;;;;;;;;;;;-144.47;100.00;61586.06;5022615;28;19917;-75
2023/01/08 10:37:30;;;;;;;;;;;;;;;-144.47;100.00;61586.06;5016902;28;19925;-74
2023/01/08 10:40:07;;;;;;;;;;;;;;;-144.47;100.00;61586.06;5019982;28;20286;-73
2023/01/08 10:42:35;;;;;;;;;;;;;;;-144.47;100.00;61586.06;5024228;28;19917;-76
2023/01/08 10:45:06;;;;;;;;;;;;;;;-144.47;100.00;61586.06;5023286;28;19913;-75
2023/01/08 10:47:33;;;;;;;;;;;;;;;-144.47;100.00;61586.06;5018048;28;19932;-78
2023/01/08 10:49:59;;;;;;;;;;;;;;;-144.47;100.00;61586.06;5021078;28;20331;-79
2023/01/08 10:52:30;;;;;;;;;;;;;;;-144.47;100.00;61586.06;5021803;28;20305;-78
2023/01/08 10:54:56;;;;;;;;;;;;;;;-144.47;100.00;61586.06;5023208;28;20000;-76
2023/01/08 10:57:28;;;;;;;;;;;;;;;-144.47;100.00;61586.06;5024922;28;20011;-74
2023/01/08 10:59:54;;;;;;;;;;;;;;;-144.47;100.00;61586.06;5026911;28;20542;-75
2023/01/08 11:02:28;;;;;;;;;;;;;;;-144.47;100.00;61586.06;5025103;28;19931;-77
2023/01/08 11:04:54;;;;;;;;;;;;;;;-144.47;100.00;61586.06;5025044;28;19917;-75
2023/01/08 11:07:21;;;;;;;;;;;;;;;-144.47;100.00;61586.06;5026072;28;19924;-75
2023/01/08 11:09:48;;;;;;;;;;;;;;;-144.47;100.00;61586.06;5027748;28;19943;-80
2023/01/08 11:12:37;;;;;;;;;;;;;;;-144.47;100.00;61586.06;5020384;28;19913;-79
2023/01/08 11:15:04;;;;;;;;;;;;;;;-144.47;100.00;61586.06;5020929;28;19916;-77
2023/01/08 11:17:31;;;;;;;;;;;;;;;-144.47;100.00;61586.06;5026483;28;19928;-77
2023/01/08 11:20:26;;;;;;;;;;;;;;;-144.47;100.00;61586.06;5027927;28;19922;-76
2023/01/08 11:23:02;;;;;;;;;;;;;;;-144.47;100.00;61586.06;5013077;28;20602;-76
2023/01/08 11:25:29;;;;;;;;;;;;;;;-144.47;100.00;61586.06;5025380;28;20296;-76
2023/01/08 11:27:55;;;;;;;;;;;;;;;-144.47;100.00;61586.06;5024299;28;20007;-76
2023/01/08 11:30:23;;;;;;;;;;;;;;;-144.47;100.00;61586.06;5025357;28;19917;-76
2023/01/08 11:32:48;;;;;;;;;;;;;;;-144.47;100.00;61586.06;5022712;28;20024;-78
2023/01/08 11:35:18;;;;;;;;;;;;;;;-144.47;100.00;61586.06;5018472;28;20032;-80
2023/01/08 11:37:57;;;;;;;;;;;;;;;-144.47;100.00;61586.06;5027813;28;19917;-79
2023/01/08 11:40:41;;;;;;;;;;;;;;;-144.47;100.00;61586.06;5022976;28;20530;-81
2023/01/08 11:43:12;;;;;;;;;;;;;;;-144.47;100.00;61586.06;5025707;28;19918;-82
2023/01/08 11:45:47;;;;;;;;;;;;;;;-144.47;100.00;61586.06;5027662;28;19925;-84
2023/01/08 11:48:32;;;;;;;;;;;;;;;-144.47;100.00;61586.06;5029138;28;19925;-86
2023/01/08 11:51:00;;;;;;;;;;;;;;;-144.47;100.00;61586.06;5019948;28;20329;-81
2023/01/08 11:53:35;;;;;;;;;;;;;;;-144.47;100.00;61586.06;5024865;28;19917;-83
2023/01/08 11:56:00;;;;;;;;;;;;;;;-144.47;100.00;61586.06;5017257;28;20285;-77
2023/01/08 11:58:44;;;;;;;;;;;;;;;-144.47;100.00;61586.06;5013493;28;20337;-76
2023/01/08 12:01:13;;;;;;;;;;;;;;;-144.47;100.00;61586.06;5022188;28;19925;-75
2023/01/08 12:04:02;;;;;;;;;;;;;;;-144.47;100.00;61586.06;5022733;28;19994;-77
2023/01/08 12:06:38;;;;;;;;;;;;;;;-144.47;100.00;61586.06;5021907;28;20267;-76
2023/01/08 12:09:07;;;;;;;;;;;;;;;-144.47;100.00;61586.06;5017886;28;19926;-78
2023/01/08 12:11:44;;;;;;;;;;;;;;;-144.47;100.00;61586.06;5017162;28;20715;-76
2023/01/08 12:14:19;;;;;;;;;;;;;;;-144.47;100.00;61586.06;5018292;28;20305;-77
2023/01/08 12:17:08;;;;;;;;;;;;;;;-144.47;100.00;61586.06;5018552;28;19921;-76
2023/01/08 12:19:49;;;;;;;;;;;;;;;-144.47;100.00;61586.06;5023881;28;19917;-76